createdAt,value
2019-05-09T12:42:03.076Z,36.5682
2019-05-09T12:42:11.380Z,38.1857
2019-05-09T12:42:19.220Z,40.6058
2019-05-09T12:42:28.997Z,38.4039
2019-05-09T12:42:39.298Z,37.9736
2019-05-09T12:42:50.091Z,41.1566
2019-05-09T12:42:58.142Z,37.3495
2019-05-09T12:43:28.299Z,36.3348
2019-05-09T12:43:38.193Z,40.2914
2019-05-09T12:43:46.148Z,35.9411
2019-05-09T12:43:54.233Z,38.9624
2019-05-09T12:44:02.188Z,35.9091
2019-05-09T12:44:10.162Z,36.4019
2019-05-09T12:44:18.581Z,36.5255
2019-05-09T12:44:28.638Z,38.2315
2019-05-09T12:44:36.238Z,39.3576
2019-05-09T12:44:44.167Z,37.1160
2019-05-09T12:44:52.176Z,40.2182
2019-05-09T12:45:00.170Z,39.0738
2019-05-09T12:45:08.416Z,37.4517
2019-05-09T12:45:17.989Z,35.7107
2019-05-09T12:45:26.173Z,36.5042
2019-05-09T12:45:34.172Z,36.1410
2019-05-09T12:45:42.215Z,36.0632
2019-05-09T12:45:50.154Z,35.4925
2019-05-09T12:45:58.156Z,36.2234
2019-05-09T12:46:08.639Z,36.1288
2019-05-09T12:46:16.161Z,35.9731
2019-05-09T12:46:24.188Z,35.9274
2019-05-09T12:46:32.243Z,35.9121
2019-05-09T12:46:40.175Z,35.8389
2019-05-09T12:46:48.996Z,35.9121
2019-05-09T12:46:58.112Z,46.1952
2019-05-09T12:47:06.331Z,47.2435
2019-05-09T12:47:14.165Z,41.8418
2019-05-09T12:47:22.147Z,40.6348
2019-05-09T12:47:30.156Z,39.0646
2019-05-09T12:47:39.781Z,38.3825
2019-05-09T12:47:48.175Z,36.9879
2019-05-09T12:48:10.159Z,37.7096
2019-05-09T12:48:19.486Z,37.0748
2019-05-09T12:48:27.882Z,36.9574
2019-05-09T12:48:36.147Z,39.9237
2019-05-09T12:48:44.157Z,38.7060
2019-05-09T12:48:52.221Z,37.5219
2019-05-09T12:49:00.197Z,37.3587
2019-05-09T12:49:08.982Z,37.2274
2019-05-09T12:49:25.166Z,36.8597
2019-05-09T12:49:33.164Z,36.7422
2019-05-09T12:49:41.160Z,36.4981
2019-05-09T12:53:48.888Z,36.3394
2019-05-09T12:53:58.304Z,38.6694
2019-05-09T12:54:08.398Z,38.4054
2019-05-09T12:54:18.771Z,36.3348
2019-05-09T12:54:27.923Z,35.4131
2019-05-09T12:54:38.493Z,35.1843
2019-05-09T12:54:48.350Z,34.9569
2019-05-09T12:54:58.291Z,43.7598
2019-05-09T12:55:08.194Z,38.7564
2019-05-09T12:55:17.858Z,36.1456
2019-05-09T12:55:27.602Z,35.8541
2019-05-09T12:55:35.462Z,35.0332
2019-05-09T12:55:43.452Z,34.9096
2019-05-09T12:55:51.482Z,34.7875
2019-05-09T12:55:59.481Z,34.6181
2019-05-09T12:56:08.194Z,34.7005
2019-05-09T12:56:18.727Z,34.9065
2019-05-09T12:56:28.565Z,34.7829
2019-05-09T12:56:38.494Z,34.8516
2019-05-09T12:56:48.510Z,34.7036
2019-05-09T12:56:59.191Z,34.7234
2019-05-09T12:57:08.077Z,34.8424
2019-05-09T12:57:19.168Z,34.8241
2019-05-09T12:57:28.867Z,34.9966
2019-05-09T12:57:38.688Z,34.9981
2019-05-09T12:57:48.865Z,34.9340
2019-05-09T12:57:59.479Z,34.9157
2019-05-09T12:58:09.747Z,35.0011
2019-05-09T12:58:17.845Z,35.0713
2019-05-09T12:58:27.662Z,35.1156
2019-05-09T12:58:35.474Z,35.0835
2019-05-09T12:58:43.501Z,35.1110
2019-05-09T12:58:51.535Z,35.1812
2019-05-09T12:58:59.470Z,35.2850
2019-05-09T12:59:08.796Z,35.2667
2019-05-09T12:59:18.754Z,35.2804
2019-05-09T12:59:28.694Z,35.3826
2019-05-09T12:59:48.162Z,35.4223
2019-05-09T12:59:52.969Z,40.6668
2019-05-09T13:00:01.474Z,46.8513
2019-05-09T13:00:09.457Z,50.7042
2019-05-09T13:00:18.724Z,40.6714
2019-05-09T13:00:28.389Z,44.1138
2019-05-09T13:00:38.450Z,36.8200
2019-05-09T13:00:49.240Z,35.2804
2019-05-09T13:01:00.778Z,35.6832
2019-05-09T13:01:08.529Z,35.7244
2019-05-09T13:05:38.885Z,45.8289
2019-05-09T13:09:11.475Z,41.7960
2019-05-09T13:09:19.268Z,44.0711
2019-05-09T13:09:28.622Z,42.2766
2019-05-09T13:09:36.191Z,40.5524
2019-05-09T13:09:44.204Z,40.4379
2019-05-09T13:11:13.752Z,42.0768
2019-05-09T13:11:21.232Z,42.5101
2019-05-09T13:13:41.536Z,40.1297
2019-05-09T13:13:49.255Z,49.4881
2019-05-09T13:13:57.200Z,37.5311
2019-05-09T13:14:05.198Z,36.2417
2019-05-09T13:14:13.262Z,36.1456
2019-05-09T13:15:23.603Z,36.8917
2019-05-09T13:15:23.603Z,36.0006
2019-05-09T13:19:58.472Z,44.4144
2019-05-09T13:20:07.937Z,44.3915
2019-05-09T13:20:30.954Z,44.8554
2019-05-09T13:22:18.519Z,49.6193
2019-05-09T13:22:18.519Z,46.7185
2019-05-09T13:22:28.346Z,49.2393
2019-05-09T13:22:37.412Z,46.3050
2019-05-09T13:22:47.684Z,44.3885
2019-05-09T13:22:58.850Z,43.9017
2019-05-09T13:23:14.488Z,42.9511
2019-05-09T13:23:31.889Z,40.2182
2019-05-09T13:23:40.541Z,39.0814
